Etusivu
METAR-TAF:

METAR-TAF

Lentoasemat :

Cherokee County Airport

Canton, Georgia, Yhdysvallat

Leveyspiiri: 34-18-38N, Pituuspiiri: 084-25-26W, korkeus merenpinnasta: 372 m

Tämänhetkinen sää

Tämä raportti tehtiin 15 minuuttia sitten, kello 15.30 UTC
Tuuli 11 kn idästä puuskistuen 15 kn:hen
Lämpötila 12°C
Kosteus 88%
Ilmanpaine 1016 hPa
Näkyvyys: 11.3 km
Pilvistä 2400 ft:n korkeudessa
sadetta

METAR: KCNI 191530Z AUTO 08011G15KT 7SM RA OVC024 12/10 A3000 RMK AO2

Aika: 11:45 (15:45 UTC)


TAF: puuttuu

Säähavainnot ja -ennusteet yli 4000 lentoasemalta (METAR- ja TAF-raportit).

Käytössä olevat sääasemat on merkitty karttaan keltaisilla ja punaisilla pisteillä.

Aseta hiiri pisteen päälle nähdäksesi sääaseman nimen.

Klikkaa sitten nähdäksesi säähavainnot ja -ennusteet.

Kartan vaihtaminen: klikkaa mustalla rastilla varustettuja vihreitä pisteitä, niin voit zoomata sisään; viivalla varustettua vihreää pistettä, niin voit zoomata ulos tai vihreitä nuolia, niin pääset viereisille kartoille.


METAR-TAF: